VGEG

Details ICAO VGEG (CGP)
Name SHAH AMANAT INTL
Region Bangladesh
Timezone Asia/Dhaka (UTC+6.0)
Plans Departing 57
Arriving 68
Stats Elevation 12 ft / 4 m (AMSL)
Location 22.249610° 91.813286°
Runways 1
Magnetic Variation 0.396° W
Sunrise 2017-12-16 00:26:17 UTC / 2017-12-16 06:26:17 Local
Sunset 2017-12-16 11:13:00 UTC / 2017-12-16 17:13:00 Local
Advertisement - Login to hide

Runways

ID Width Length Bearing (true) Bearing (mag) Surface Threshold Offset Overrun Length
05 150 ft / 46 m 9,633 ft / 2,936 m 48.21° 48.61° Asphalt 0 ft / 0 m 200 ft / 61 m
23 150 ft / 46 m 9,633 ft / 2,936 m 228.21° 228.61° Asphalt 0 ft / 0 m 1,194 ft / 364 m

Approach Navaids

Runway Type Ident Frequency Range Bearing (true) Bearing (mag) Slope Elevation
23 Localiser ICG 110.50 MHz 18 nm / 33 km 228.26° 228.66° - 12 ft / 4 m (AMSL)
23 Glidescope ICG 110.50 MHz 10 nm / 19 km 228.21° 228.61° 3.00° 12 ft / 4 m (AMSL)
23 DME ICG 110.50 MHz 18 nm / 33 km - - - 12 ft / 4 m (AMSL)

Map

Weather


0- 5 10 15 20 25 30 35+ Temperature / ° C

Clouds and Precipitation
Forecast for 2017-12-16 18:00 UTC. Updated 6 minutes ago

Ground ~20,000 ft ~40,000 ft Winds

METAR

VGEG 161500Z 04006KT 3200 HZ NSC 20/16 Q1015 NOSIG

TAF

Not found

Frequencies

Recorded 127.60 MHz ATIS
Tower 118.70 MHz CHITTAGONG TWR
Ground 121.80 MHz CHITTAGONG GND
Warning: Do not use this data for real-world aviation or navigation. No guarantee of current accuracy is given.